Terminal Aerodrome Forecast
Issued by NWS Cleveland, OH

Home | Current Version | Previous Version | Graphics & Text | Print | Product List | Glossary On
Versions: 1 2 3 4 5 6 7 8 9 10 11 12 13
000
FTUS41 KCLE 132337
TAFYNG
TAF
KYNG 132337Z 1400/1424 02006KT P6SM SCT100 OVC250
     FM140900 08004KT P6SM OVC100
     FM141500 08004KT P6SM OVC050
     FM142000 30004KT P6SM OVC100=

USA.gov is the U.S. government's official web portal to all federal, state and local government web resources and services.